sensor_id;sensor_type;location;lat;lon;timestamp;pressure;altitude;pressure_sealevel;temperature;humidity
63700;BME280;49845;47.130;142.766;2022-11-11T00:01:53;101562.66;;;-0.22;71.68
63700;BME280;49845;47.130;142.766;2022-11-11T00:05:04;101582.91;;;0.08;69.54
63700;BME280;49845;47.130;142.766;2022-11-11T00:07:43;101566.44;;;0.22;68.40
63700;BME280;49845;47.130;142.766;2022-11-11T00:10:20;101575.66;;;0.36;66.16
63700;BME280;49845;47.130;142.766;2022-11-11T00:13:12;101566.69;;;0.46;63.29
63700;BME280;49845;47.130;142.766;2022-11-11T00:16:27;101575.00;;;0.60;63.02
63700;BME280;49845;47.130;142.766;2022-11-11T00:19:37;101572.88;;;0.69;61.25
63700;BME280;49845;47.130;142.766;2022-11-11T00:22:32;101565.56;;;0.78;61.51
63700;BME280;49845;47.130;142.766;2022-11-11T00:25:28;101571.13;;;0.88;61.14
63700;BME280;49845;47.130;142.766;2022-11-11T00:28:21;101566.34;;;0.97;62.24
63700;BME280;49845;47.130;142.766;2022-11-11T00:31:08;101568.38;;;1.04;60.12
63700;BME280;49845;47.130;142.766;2022-11-11T00:33:53;101575.69;;;1.14;60.82
63700;BME280;49845;47.130;142.766;2022-11-11T00:36:33;101564.28;;;1.28;60.57
63700;BME280;49845;47.130;142.766;2022-11-11T00:39:19;101558.03;;;1.43;60.87
63700;BME280;49845;47.130;142.766;2022-11-11T00:41:57;101549.75;;;1.50;59.23
63700;BME280;49845;47.130;142.766;2022-11-11T00:44:38;101553.22;;;1.52;57.09
63700;BME280;49845;47.130;142.766;2022-11-11T00:47:20;101540.94;;;1.45;55.38
63700;BME280;49845;47.130;142.766;2022-11-11T00:50:23;101558.09;;;1.65;57.70
63700;BME280;49845;47.130;142.766;2022-11-11T00:53:35;101552.38;;;1.72;56.11
63700;BME280;49845;47.130;142.766;2022-11-11T00:56:22;101554.59;;;1.86;57.88
63700;BME280;49845;47.130;142.766;2022-11-11T00:59:08;101541.72;;;1.86;54.14
63700;BME280;49845;47.130;142.766;2022-11-11T01:01:48;101543.47;;;1.87;53.15
63700;BME280;49845;47.130;142.766;2022-11-11T01:04:41;101556.31;;;1.85;50.35
63700;BME280;49845;47.130;142.766;2022-11-11T01:07:24;101532.34;;;1.88;52.26
63700;BME280;49845;47.130;142.766;2022-11-11T01:10:14;101553.47;;;2.00;50.55
63700;BME280;49845;47.130;142.766;2022-11-11T01:13:06;101552.16;;;2.11;50.64
63700;BME280;49845;47.130;142.766;2022-11-11T01:16:10;101547.13;;;2.14;47.91
63700;BME280;49845;47.130;142.766;2022-11-11T01:19:01;101549.00;;;2.19;47.70
63700;BME280;49845;47.130;142.766;2022-11-11T01:21:52;101542.03;;;2.16;46.82
63700;BME280;49845;47.130;142.766;2022-11-11T01:24:40;101541.63;;;2.28;46.85
63700;BME280;49845;47.130;142.766;2022-11-11T01:27:26;101545.16;;;2.30;45.98
63700;BME280;49845;47.130;142.766;2022-11-11T01:30:46;101534.34;;;2.40;45.30
63700;BME280;49845;47.130;142.766;2022-11-11T01:33:33;101540.19;;;2.36;42.71
63700;BME280;49845;47.130;142.766;2022-11-11T01:36:10;101530.81;;;2.38;44.42
63700;BME280;49845;47.130;142.766;2022-11-11T01:39:01;101499.41;;;2.26;43.48
63700;BME280;49845;47.130;142.766;2022-11-11T01:41:47;101526.44;;;2.59;43.35
63700;BME280;49845;47.130;142.766;2022-11-11T01:44:44;101525.81;;;2.65;42.64
63700;BME280;49845;47.130;142.766;2022-11-11T01:47:24;101510.94;;;2.59;43.56
63700;BME280;49845;47.130;142.766;2022-11-11T01:50:28;101504.69;;;2.77;43.82
63700;BME280;49845;47.130;142.766;2022-11-11T01:53:28;101514.66;;;2.90;44.89
63700;BME280;49845;47.130;142.766;2022-11-11T01:56:17;101500.59;;;3.08;45.45
63700;BME280;49845;47.130;142.766;2022-11-11T01:59:12;101494.84;;;3.16;44.76
63700;BME280;49845;47.130;142.766;2022-11-11T02:01:58;101494.00;;;3.16;43.50
63700;BME280;49845;47.130;142.766;2022-11-11T02:04:39;101500.09;;;3.18;44.92
63700;BME280;49845;47.130;142.766;2022-11-11T02:07:36;101488.13;;;3.21;45.70
63700;BME280;49845;47.130;142.766;2022-11-11T02:10:35;101492.44;;;3.21;44.36
63700;BME280;49845;47.130;142.766;2022-11-11T02:13:21;101490.78;;;3.23;44.41
63700;BME280;49845;47.130;142.766;2022-11-11T02:16:23;101468.47;;;3.25;44.84
63700;BME280;49845;47.130;142.766;2022-11-11T02:19:19;101460.88;;;3.30;45.01
63700;BME280;49845;47.130;142.766;2022-11-11T02:21:59;101470.84;;;3.44;45.84
63700;BME280;49845;47.130;142.766;2022-11-11T02:24:43;101460.28;;;3.38;44.50
63700;BME280;49845;47.130;142.766;2022-11-11T02:27:20;101461.66;;;3.27;42.91
63700;BME280;49845;47.130;142.766;2022-11-11T02:30:15;101461.66;;;3.27;45.65
63700;BME280;49845;47.130;142.766;2022-11-11T02:33:12;101448.09;;;3.34;45.55
63700;BME280;49845;47.130;142.766;2022-11-11T02:35:56;101461.53;;;3.50;44.86
63700;BME280;49845;47.130;142.766;2022-11-11T02:38:43;101451.69;;;3.39;43.22
63700;BME280;49845;47.130;142.766;2022-11-11T02:41:29;101449.84;;;3.35;44.49
63700;BME280;49845;47.130;142.766;2022-11-11T02:44:22;101458.81;;;3.46;44.31
63700;BME280;49845;47.130;142.766;2022-11-11T02:47:29;101453.47;;;3.40;44.05
63700;BME280;49845;47.130;142.766;2022-11-11T02:50:13;101415.25;;;3.30;45.63
63700;BME280;49845;47.130;142.766;2022-11-11T02:52:52;101450.91;;;3.69;45.14
63700;BME280;49845;47.130;142.766;2022-11-11T02:55:43;101442.59;;;3.79;45.37
63700;BME280;49845;47.130;142.766;2022-11-11T02:58:24;101445.66;;;3.95;45.56
63700;BME280;49845;47.130;142.766;2022-11-11T03:01:11;101444.09;;;4.00;43.51
63700;BME280;49845;47.130;142.766;2022-11-11T03:03:57;101430.94;;;3.94;41.36
63700;BME280;49845;47.130;142.766;2022-11-11T03:06:49;101429.00;;;3.86;41.95
63700;BME280;49845;47.130;142.766;2022-11-11T03:09:38;101433.41;;;3.89;42.96
63700;BME280;49845;47.130;142.766;2022-11-11T03:12:27;101395.81;;;3.72;42.04
63700;BME280;49845;47.130;142.766;2022-11-11T03:15:28;101439.81;;;4.02;43.61
63700;BME280;49845;47.130;142.766;2022-11-11T03:18:26;101437.34;;;4.05;44.33
63700;BME280;49845;47.130;142.766;2022-11-11T03:21:00;101432.88;;;4.01;42.50
63700;BME280;49845;47.130;142.766;2022-11-11T03:24:13;101437.13;;;3.99;43.30
63700;BME280;49845;47.130;142.766;2022-11-11T03:26:59;101424.28;;;4.02;43.13
63700;BME280;49845;47.130;142.766;2022-11-11T03:29:36;101434.38;;;3.93;41.73
63700;BME280;49845;47.130;142.766;2022-11-11T03:32:31;101426.28;;;3.82;42.43
63700;BME280;49845;47.130;142.766;2022-11-11T03:35:14;101437.78;;;3.92;42.13
63700;BME280;49845;47.130;142.766;2022-11-11T03:38:09;101438.56;;;3.89;42.57
63700;BME280;49845;47.130;142.766;2022-11-11T03:41:18;101440.56;;;3.98;42.26
63700;BME280;49845;47.130;142.766;2022-11-11T03:44:43;101445.59;;;3.93;41.64
63700;BME280;49845;47.130;142.766;2022-11-11T03:47:37;101437.63;;;3.85;40.74
63700;BME280;49845;47.130;142.766;2022-11-11T03:50:16;101436.75;;;3.85;41.73
63700;BME280;49845;47.130;142.766;2022-11-11T03:52:54;101448.66;;;3.80;41.86
63700;BME280;49845;47.130;142.766;2022-11-11T03:55:38;101444.16;;;3.74;41.03
63700;BME280;49845;47.130;142.766;2022-11-11T03:58:18;101429.25;;;3.65;41.77
63700;BME280;49845;47.130;142.766;2022-11-11T04:01:04;101449.28;;;3.73;41.33
63700;BME280;49845;47.130;142.766;2022-11-11T04:04:06;101433.56;;;3.65;41.15
63700;BME280;49845;47.130;142.766;2022-11-11T04:07:11;101440.56;;;3.69;40.48
63700;BME280;49845;47.130;142.766;2022-11-11T04:10:06;101434.22;;;3.59;40.40
63700;BME280;49845;47.130;142.766;2022-11-11T04:13:00;101435.84;;;3.56;41.71
63700;BME280;49845;47.130;142.766;2022-11-11T04:16:09;101433.19;;;3.53;40.58
63700;BME280;49845;47.130;142.766;2022-11-11T04:18:50;101431.31;;;3.49;39.67
63700;BME280;49845;47.130;142.766;2022-11-11T04:21:54;101417.47;;;3.46;41.53
63700;BME280;49845;47.130;142.766;2022-11-11T04:24:36;101422.53;;;3.43;40.60
63700;BME280;49845;47.130;142.766;2022-11-11T04:27:26;101424.31;;;3.44;41.63
63700;BME280;49845;47.130;142.766;2022-11-11T04:30:14;101437.97;;;3.40;40.91
63700;BME280;49845;47.130;142.766;2022-11-11T04:33:04;101437.19;;;3.43;42.06
63700;BME280;49845;47.130;142.766;2022-11-11T04:35:53;101404.63;;;3.21;40.74
63700;BME280;49845;47.130;142.766;2022-11-11T04:38:39;101431.03;;;3.39;41.30
63700;BME280;49845;47.130;142.766;2022-11-11T04:41:34;101423.81;;;3.29;41.26
63700;BME280;49845;47.130;142.766;2022-11-11T04:44:37;101438.75;;;3.38;41.30
63700;BME280;49845;47.130;142.766;2022-11-11T04:47:32;101436.19;;;3.39;42.12
63700;BME280;49845;47.130;142.766;2022-11-11T04:50:08;101441.56;;;3.45;43.25
63700;BME280;49845;47.130;142.766;2022-11-11T04:52:49;101440.69;;;3.45;43.01
63700;BME280;49845;47.130;142.766;2022-11-11T04:55:38;101434.53;;;3.41;43.73
63700;BME280;49845;47.130;142.766;2022-11-11T04:58:28;101439.63;;;3.38;43.48
63700;BME280;49845;47.130;142.766;2022-11-11T05:01:15;101451.50;;;3.33;43.46
63700;BME280;49845;47.130;142.766;2022-11-11T05:04:10;101435.59;;;3.21;43.75
63700;BME280;49845;47.130;142.766;2022-11-11T05:06:59;101441.88;;;3.28;44.16
63700;BME280;49845;47.130;142.766;2022-11-11T05:09:52;101446.16;;;3.27;43.45
63700;BME280;49845;47.130;142.766;2022-11-11T05:12:55;101441.72;;;3.23;44.15
63700;BME280;49845;47.130;142.766;2022-11-11T05:15:54;101432.09;;;3.19;43.99
63700;BME280;49845;47.130;142.766;2022-11-11T05:18:45;101437.34;;;3.22;44.58
63700;BME280;49845;47.130;142.766;2022-11-11T05:21:56;101421.75;;;3.19;44.22
63700;BME280;49845;47.130;142.766;2022-11-11T05:24:50;101420.81;;;3.15;44.72
63700;BME280;49845;47.130;142.766;2022-11-11T05:27:46;101427.53;;;3.10;44.46
63700;BME280;49845;47.130;142.766;2022-11-11T05:30:39;101425.63;;;3.05;44.20
63700;BME280;49845;47.130;142.766;2022-11-11T05:33:18;101429.09;;;3.05;45.03
63700;BME280;49845;47.130;142.766;2022-11-11T05:35:56;101434.13;;;3.02;43.96
63700;BME280;49845;47.130;142.766;2022-11-11T05:38:35;101441.59;;;2.94;44.04
63700;BME280;49845;47.130;142.766;2022-11-11T05:41:28;101439.69;;;2.87;43.88
63700;BME280;49845;47.130;142.766;2022-11-11T05:44:11;101435.84;;;2.76;43.84
63700;BME280;49845;47.130;142.766;2022-11-11T05:46:56;101443.50;;;2.74;45.93
63700;BME280;49845;47.130;142.766;2022-11-11T05:49:51;101442.66;;;2.74;46.79
63700;BME280;49845;47.130;142.766;2022-11-11T05:52:52;101434.66;;;2.66;46.79
63700;BME280;49845;47.130;142.766;2022-11-11T05:55:59;101444.94;;;2.65;46.55
63700;BME280;49845;47.130;142.766;2022-11-11T05:58:49;101450.91;;;2.64;47.06
63700;BME280;49845;47.130;142.766;2022-11-11T06:01:30;101449.59;;;2.51;47.32
63700;BME280;49845;47.130;142.766;2022-11-11T06:04:39;101461.72;;;2.53;47.89
63700;BME280;49845;47.130;142.766;2022-11-11T06:07:36;101459.75;;;2.46;47.43
63700;BME280;49845;47.130;142.766;2022-11-11T06:10:19;101418.31;;;2.18;47.95
63700;BME280;49845;47.130;142.766;2022-11-11T06:13:22;101470.47;;;2.33;48.05
63700;BME280;49845;47.130;142.766;2022-11-11T06:16:16;101470.00;;;2.21;48.15
63700;BME280;49845;47.130;142.766;2022-11-11T06:22:21;101466.19;;;2.11;49.52
63700;BME280;49845;47.130;142.766;2022-11-11T06:25:24;101455.03;;;1.88;49.06
63700;BME280;49845;47.130;142.766;2022-11-11T06:28:14;101478.81;;;1.81;48.88
63700;BME280;49845;47.130;142.766;2022-11-11T06:31:05;101452.66;;;1.49;48.45
63700;BME280;49845;47.130;142.766;2022-11-11T06:33:45;101436.09;;;1.21;48.97
63700;BME280;49845;47.130;142.766;2022-11-11T06:36:26;101489.53;;;1.48;50.32
63700;BME280;49845;47.130;142.766;2022-11-11T06:39:48;101490.03;;;1.39;50.71
63700;BME280;49845;47.130;142.766;2022-11-11T06:42:40;101446.84;;;1.11;50.54
63700;BME280;49845;47.130;142.766;2022-11-11T06:45:32;101487.72;;;1.24;50.86
63700;BME280;49845;47.130;142.766;2022-11-11T06:48:36;101482.06;;;1.12;50.57
63700;BME280;49845;47.130;142.766;2022-11-11T06:52:02;101481.38;;;0.95;51.66
63700;BME280;49845;47.130;142.766;2022-11-11T06:54:58;101474.13;;;0.86;52.88
63700;BME280;49845;47.130;142.766;2022-11-11T06:57:36;101478.31;;;0.84;54.22
63700;BME280;49845;47.130;142.766;2022-11-11T07:00:15;101473.81;;;0.79;54.73
63700;BME280;49845;47.130;142.766;2022-11-11T07:03:02;101455.97;;;0.62;54.29
63700;BME280;49845;47.130;142.766;2022-11-11T07:06:04;101465.25;;;0.59;54.93
63700;BME280;49845;47.130;142.766;2022-11-11T07:08:59;101484.47;;;0.48;54.89
63700;BME280;49845;47.130;142.766;2022-11-11T07:12:01;101482.50;;;0.42;55.51
63700;BME280;49845;47.130;142.766;2022-11-11T07:14:40;101456.31;;;0.12;54.93
63700;BME280;49845;47.130;142.766;2022-11-11T07:17:27;101474.50;;;0.16;56.02
63700;BME280;49845;47.130;142.766;2022-11-11T07:20:29;101492.41;;;0.15;55.07
63700;BME280;49845;47.130;142.766;2022-11-11T07:23:40;101486.88;;;0.06;55.41
63700;BME280;49845;47.130;142.766;2022-11-11T07:26:21;101488.44;;;-0.16;55.71
63700;BME280;49845;47.130;142.766;2022-11-11T07:29:05;101479.50;;;-0.24;56.72
63700;BME280;49845;47.130;142.766;2022-11-11T07:31:55;101471.38;;;-0.33;56.90
63700;BME280;49845;47.130;142.766;2022-11-11T07:34:45;101486.91;;;-0.30;57.24
63700;BME280;49845;47.130;142.766;2022-11-11T07:37:32;101485.03;;;-0.34;57.71
63700;BME280;49845;47.130;142.766;2022-11-11T07:40:13;101478.28;;;-0.32;57.83
63700;BME280;49845;47.130;142.766;2022-11-11T07:43:01;101491.91;;;-0.33;57.92
63700;BME280;49845;47.130;142.766;2022-11-11T07:45:52;101498.25;;;-0.45;58.08
63700;BME280;49845;47.130;142.766;2022-11-11T07:48:37;101494.56;;;-0.50;57.14
63700;BME280;49845;47.130;142.766;2022-11-11T07:51:53;101500.56;;;-0.49;58.94
63700;BME280;49845;47.130;142.766;2022-11-11T07:54:27;101429.41;;;-0.88;59.12
63700;BME280;49845;47.130;142.766;2022-11-11T07:57:30;101503.66;;;-0.56;58.13
63700;BME280;49845;47.130;142.766;2022-11-11T08:00:12;101429.13;;;-0.94;58.00
63700;BME280;49845;47.130;142.766;2022-11-11T08:03:19;101496.03;;;-0.55;58.75
63700;BME280;49845;47.130;142.766;2022-11-11T08:06:07;101497.41;;;-0.44;58.71
63700;BME280;49845;47.130;142.766;2022-11-11T08:08:56;101493.47;;;-0.55;58.19
63700;BME280;49845;47.130;142.766;2022-11-11T08:11:31;101504.53;;;-0.56;58.81
63700;BME280;49845;47.130;142.766;2022-11-11T08:14:34;101503.00;;;-0.52;59.15
63700;BME280;49845;47.130;142.766;2022-11-11T08:20:16;101497.03;;;-0.69;58.43
63700;BME280;49845;47.130;142.766;2022-11-11T08:23:03;101485.59;;;-0.76;58.59
63700;BME280;49845;47.130;142.766;2022-11-11T08:26:26;101489.09;;;-0.92;59.29
63700;BME280;49845;47.130;142.766;2022-11-11T08:29:23;101494.41;;;-1.05;60.04
63700;BME280;49845;47.130;142.766;2022-11-11T08:32:19;101499.38;;;-1.08;60.51
63700;BME280;49845;47.130;142.766;2022-11-11T08:35:13;101489.94;;;-1.09;61.21
63700;BME280;49845;47.130;142.766;2022-11-11T08:37:59;101485.53;;;-1.12;61.77
63700;BME280;49845;47.130;142.766;2022-11-11T08:40:48;101484.94;;;-1.06;61.35
63700;BME280;49845;47.130;142.766;2022-11-11T08:43:33;101492.78;;;-1.03;61.11
63700;BME280;49845;47.130;142.766;2022-11-11T08:46:53;101484.66;;;-1.12;61.82
63700;BME280;49845;47.130;142.766;2022-11-11T08:50:16;101493.28;;;-1.10;62.01
63700;BME280;49845;47.130;142.766;2022-11-11T08:53:25;101493.72;;;-1.19;62.88
63700;BME280;49845;47.130;142.766;2022-11-11T08:56:18;101488.84;;;-1.31;62.58
63700;BME280;49845;47.130;142.766;2022-11-11T08:58:57;101504.69;;;-1.38;62.77
63700;BME280;49845;47.130;142.766;2022-11-11T09:02:05;101505.19;;;-1.45;63.08
63700;BME280;49845;47.130;142.766;2022-11-11T09:05:02;101493.91;;;-1.48;63.46
63700;BME280;49845;47.130;142.766;2022-11-11T09:07:53;101506.97;;;-1.44;63.56
63700;BME280;49845;47.130;142.766;2022-11-11T09:11:01;101503.28;;;-1.49;63.35
63700;BME280;49845;47.130;142.766;2022-11-11T09:13:49;101508.72;;;-1.43;63.25
63700;BME280;49845;47.130;142.766;2022-11-11T09:16:34;101503.75;;;-1.40;63.67
63700;BME280;49845;47.130;142.766;2022-11-11T09:19:25;101506.47;;;-1.37;63.95
63700;BME280;49845;47.130;142.766;2022-11-11T09:22:24;101505.19;;;-1.45;64.19
63700;BME280;49845;47.130;142.766;2022-11-11T09:25:03;101505.50;;;-1.39;63.92
63700;BME280;49845;47.130;142.766;2022-11-11T09:27:44;101480.34;;;-1.46;64.84
63700;BME280;49845;47.130;142.766;2022-11-11T09:31:06;101507.91;;;-1.25;64.93
63700;BME280;49845;47.130;142.766;2022-11-11T09:34:12;101482.50;;;-1.21;65.41
63700;BME280;49845;47.130;142.766;2022-11-11T09:37:05;101498.75;;;-1.04;65.30
63700;BME280;49845;47.130;142.766;2022-11-11T09:39:50;101498.47;;;-0.92;65.76
63700;BME280;49845;47.130;142.766;2022-11-11T09:43:04;101485.84;;;-0.88;64.52
63700;BME280;49845;47.130;142.766;2022-11-11T09:46:22;101504.63;;;-0.89;64.39
63700;BME280;49845;47.130;142.766;2022-11-11T09:49:33;101497.91;;;-0.87;64.41
63700;BME280;49845;47.130;142.766;2022-11-11T09:56:11;101439.75;;;-1.20;63.86
63700;BME280;49845;47.130;142.766;2022-11-11T09:59:30;101475.78;;;-1.01;64.34
63700;BME280;49845;47.130;142.766;2022-11-11T10:09:50;101495.53;;;-1.00;64.25
63700;BME280;49845;47.130;142.766;2022-11-11T10:12:59;101484.81;;;-1.09;64.86
63700;BME280;49845;47.130;142.766;2022-11-11T10:15:56;101503.00;;;-1.04;65.22
63700;BME280;49845;47.130;142.766;2022-11-11T10:19:41;101472.75;;;-1.10;65.52
63700;BME280;49845;47.130;142.766;2022-11-11T10:23:28;101469.25;;;-1.12;65.75
63700;BME280;49845;47.130;142.766;2022-11-11T10:26:24;101462.50;;;-1.10;65.66
63700;BME280;49845;47.130;142.766;2022-11-11T10:29:12;101398.97;;;-1.50;65.72
63700;BME280;49845;47.130;142.766;2022-11-11T10:32:37;101446.34;;;-1.25;66.10
63700;BME280;49845;47.130;142.766;2022-11-11T10:35:40;101427.53;;;-1.42;66.16
63700;BME280;49845;47.130;142.766;2022-11-11T10:38:52;101447.66;;;-1.34;66.70
63700;BME280;49845;47.130;142.766;2022-11-11T10:42:14;101450.38;;;-1.31;66.88
63700;BME280;49845;47.130;142.766;2022-11-11T10:45:01;101448.13;;;-1.24;67.15
63700;BME280;49845;47.130;142.766;2022-11-11T10:55:34;101441.53;;;-1.19;67.20
63700;BME280;49845;47.130;142.766;2022-11-11T10:58:26;101439.94;;;-1.17;66.79
63700;BME280;49845;47.130;142.766;2022-11-11T11:01:27;101388.69;;;-1.50;66.94
63700;BME280;49845;47.130;142.766;2022-11-11T11:04:30;101434.34;;;-1.26;67.03
63700;BME280;49845;47.130;142.766;2022-11-11T11:07:33;101424.22;;;-1.23;67.34
63700;BME280;49845;47.130;142.766;2022-11-11T11:10:39;101431.25;;;-1.37;66.72
63700;BME280;49845;47.130;142.766;2022-11-11T11:13:33;101419.03;;;-1.59;66.94
63700;BME280;49845;47.130;142.766;2022-11-11T11:16:24;101429.41;;;-1.73;67.16
63700;BME280;49845;47.130;142.766;2022-11-11T11:19:17;101321.03;;;-2.53;67.06
63700;BME280;49845;47.130;142.766;2022-11-11T11:22:12;101420.28;;;-2.00;67.77
63700;BME280;49845;47.130;142.766;2022-11-11T11:25:16;101411.31;;;-2.08;68.07
63700;BME280;49845;47.130;142.766;2022-11-11T11:28:17;101421.25;;;-2.14;68.22
63700;BME280;49845;47.130;142.766;2022-11-11T11:31:06;101428.94;;;-2.14;68.71
63700;BME280;49845;47.130;142.766;2022-11-11T11:33:58;101419.31;;;-2.19;69.23
63700;BME280;49845;47.130;142.766;2022-11-11T11:40:05;101416.41;;;-2.25;70.09
63700;BME280;49845;47.130;142.766;2022-11-11T11:42:45;101410.16;;;-2.30;69.75
63700;BME280;49845;47.130;142.766;2022-11-11T11:45:36;101415.00;;;-2.20;70.60
63700;BME280;49845;47.130;142.766;2022-11-11T11:49:14;101404.75;;;-2.03;70.67
63700;BME280;49845;47.130;142.766;2022-11-11T11:52:05;101401.56;;;-1.99;70.71
63700;BME280;49845;47.130;142.766;2022-11-11T11:55:03;101390.47;;;-2.00;70.47
63700;BME280;49845;47.130;142.766;2022-11-11T11:58:19;101378.84;;;-2.09;69.94
63700;BME280;49845;47.130;142.766;2022-11-11T12:01:14;101391.97;;;-2.03;69.89
63700;BME280;49845;47.130;142.766;2022-11-11T12:07:53;101378.34;;;-2.02;70.63
63700;BME280;49845;47.130;142.766;2022-11-11T12:11:31;101368.34;;;-1.98;70.59
63700;BME280;49845;47.130;142.766;2022-11-11T12:14:54;101367.63;;;-1.95;70.74
63700;BME280;49845;47.130;142.766;2022-11-11T12:18:14;101359.22;;;-1.92;70.63
63700;BME280;49845;47.130;142.766;2022-11-11T12:21:12;101337.69;;;-1.96;70.87
63700;BME280;49845;47.130;142.766;2022-11-11T12:24:06;101348.09;;;-1.77;71.14
63700;BME280;49845;47.130;142.766;2022-11-11T12:26:55;101337.69;;;-1.80;71.20
63700;BME280;49845;47.130;142.766;2022-11-11T12:30:02;101327.09;;;-1.69;71.19
63700;BME280;49845;47.130;142.766;2022-11-11T12:36:35;101276.03;;;-1.83;71.05
63700;BME280;49845;47.130;142.766;2022-11-11T12:39:44;101318.03;;;-1.45;70.66
63700;BME280;49845;47.130;142.766;2022-11-11T12:42:35;101309.56;;;-1.44;70.57
63700;BME280;49845;47.130;142.766;2022-11-11T12:45:20;101289.94;;;-1.43;70.43
63700;BME280;49845;47.130;142.766;2022-11-11T12:48:08;101298.94;;;-1.34;70.43
63700;BME280;49845;47.130;142.766;2022-11-11T12:50:57;101291.25;;;-1.34;70.52
63700;BME280;49845;47.130;142.766;2022-11-11T12:54:01;101294.09;;;-1.27;70.42
63700;BME280;49845;47.130;142.766;2022-11-11T12:56:48;101271.19;;;-1.24;70.04
63700;BME280;49845;47.130;142.766;2022-11-11T13:00:04;101275.34;;;-1.26;69.52
63700;BME280;49845;47.130;142.766;2022-11-11T13:03:11;101263.50;;;-1.24;69.90
63700;BME280;49845;47.130;142.766;2022-11-11T13:06:15;101250.94;;;-1.18;69.59
63700;BME280;49845;47.130;142.766;2022-11-11T13:12:25;101253.06;;;-1.10;69.18
63700;BME280;49845;47.130;142.766;2022-11-11T13:15:44;101245.72;;;-1.02;69.55
63700;BME280;49845;47.130;142.766;2022-11-11T13:18:46;101245.88;;;-0.99;68.91
63700;BME280;49845;47.130;142.766;2022-11-11T13:21:35;101190.88;;;-1.23;68.37
63700;BME280;49845;47.130;142.766;2022-11-11T13:24:29;101226.97;;;-1.01;68.43
63700;BME280;49845;47.130;142.766;2022-11-11T13:27:22;101221.41;;;-1.10;68.29
63700;BME280;49845;47.130;142.766;2022-11-11T13:33:14;101209.84;;;-1.20;69.36
63700;BME280;49845;47.130;142.766;2022-11-11T13:36:02;101180.63;;;-1.23;68.86
63700;BME280;49845;47.130;142.766;2022-11-11T13:38:50;101183.75;;;-1.11;69.00
63700;BME280;49845;47.130;142.766;2022-11-11T13:41:41;101171.19;;;-1.05;68.84
63700;BME280;49845;47.130;142.766;2022-11-11T13:44:44;101170.38;;;-1.04;68.54
63700;BME280;49845;47.130;142.766;2022-11-11T13:47:42;101128.84;;;-1.34;69.06
63700;BME280;49845;47.130;142.766;2022-11-11T13:50:26;101126.34;;;-1.33;69.15
63700;BME280;49845;47.130;142.766;2022-11-11T13:53:30;101166.44;;;-1.15;69.02
63700;BME280;49845;47.130;142.766;2022-11-11T13:56:30;101155.94;;;-1.21;69.45
63700;BME280;49845;47.130;142.766;2022-11-11T13:59:22;101146.84;;;-1.33;69.97
63700;BME280;49845;47.130;142.766;2022-11-11T14:02:36;101169.69;;;-1.19;69.84
63700;BME280;49845;47.130;142.766;2022-11-11T14:05:19;101158.41;;;-1.23;69.82
63700;BME280;49845;47.130;142.766;2022-11-11T14:08:02;101154.31;;;-1.19;70.06
63700;BME280;49845;47.130;142.766;2022-11-11T14:10:59;101146.84;;;-1.15;69.86
63700;BME280;49845;47.130;142.766;2022-11-11T14:13:46;101149.00;;;-1.04;70.11
63700;BME280;49845;47.130;142.766;2022-11-11T14:16:59;101136.69;;;-1.12;69.17
63700;BME280;49845;47.130;142.766;2022-11-11T14:19:42;101129.53;;;-1.19;69.40
63700;BME280;49845;47.130;142.766;2022-11-11T14:22:38;101132.56;;;-1.08;68.95
63700;BME280;49845;47.130;142.766;2022-11-11T14:25:29;101139.59;;;-1.04;68.60
63700;BME280;49845;47.130;142.766;2022-11-11T14:28:31;101048.19;;;-1.60;69.27
63700;BME280;49845;47.130;142.766;2022-11-11T14:37:58;101122.72;;;-0.99;69.02
63700;BME280;49845;47.130;142.766;2022-11-11T14:40:59;101124.75;;;-0.92;69.01
63700;BME280;49845;47.130;142.766;2022-11-11T14:47:49;101112.50;;;-0.78;68.20
63700;BME280;49845;47.130;142.766;2022-11-11T14:50:58;101104.88;;;-0.76;68.03
63700;BME280;49845;47.130;142.766;2022-11-11T14:53:48;101108.53;;;-0.71;67.99
63700;BME280;49845;47.130;142.766;2022-11-11T14:56:36;101110.44;;;-0.67;67.79
63700;BME280;49845;47.130;142.766;2022-11-11T14:59:24;101110.56;;;-0.64;67.50
63700;BME280;49845;47.130;142.766;2022-11-11T15:02:27;101089.91;;;-0.67;67.05
63700;BME280;49845;47.130;142.766;2022-11-11T15:05:41;101107.69;;;-0.51;67.36
63700;BME280;49845;47.130;142.766;2022-11-11T15:08:44;101104.44;;;-0.47;67.42
63700;BME280;49845;47.130;142.766;2022-11-11T15:11:37;101099.53;;;-0.40;67.39
63700;BME280;49845;47.130;142.766;2022-11-11T15:14:34;101089.66;;;-0.31;67.19
63700;BME280;49845;47.130;142.766;2022-11-11T15:17:48;101082.06;;;-0.28;66.59
63700;BME280;49845;47.130;142.766;2022-11-11T15:20:59;101069.34;;;-0.25;66.91
63700;BME280;49845;47.130;142.766;2022-11-11T15:23:47;101064.47;;;-0.19;66.19
63700;BME280;49845;47.130;142.766;2022-11-11T15:26:32;101076.75;;;-0.12;66.56
63700;BME280;49845;47.130;142.766;2022-11-11T15:29:51;101077.63;;;-0.11;66.74
63700;BME280;49845;47.130;142.766;2022-11-11T15:33:19;101054.19;;;-0.19;66.32
63700;BME280;49845;47.130;142.766;2022-11-11T15:36:14;101021.56;;;-0.43;65.95
63700;BME280;49845;47.130;142.766;2022-11-11T15:39:17;101065.94;;;-0.03;66.06
63700;BME280;49845;47.130;142.766;2022-11-11T15:42:16;101065.06;;;-0.04;66.02
63700;BME280;49845;47.130;142.766;2022-11-11T15:45:21;101057.44;;;-0.02;65.79
63700;BME280;49845;47.130;142.766;2022-11-11T15:48:16;101041.75;;;-0.08;65.88
63700;BME280;49845;47.130;142.766;2022-11-11T15:51:27;101046.25;;;-0.03;65.96